createdAt,value
2022-10-18T00:00:41.507Z,13.82
2022-10-18T00:03:09.682Z,14.77
2022-10-18T00:05:36.416Z,14.18
2022-10-18T00:08:03.212Z,13.63
2022-10-18T00:10:29.808Z,14.00
2022-10-18T00:12:56.636Z,14.00
2022-10-18T00:15:23.228Z,12.93
2022-10-18T00:17:49.937Z,13.43
2022-10-18T00:20:18.143Z,13.70
2022-10-18T00:22:44.771Z,12.57
2022-10-18T00:25:11.576Z,12.77
2022-10-18T00:27:38.188Z,12.70
2022-10-18T00:30:06.243Z,13.20
2022-10-18T00:32:36.651Z,13.18
2022-10-18T00:35:04.311Z,13.43
2022-10-18T00:37:32.920Z,13.52
2022-10-18T00:39:59.563Z,13.48
2022-10-18T00:42:31.029Z,13.27
2022-10-18T00:45:06.292Z,13.13
2022-10-18T00:47:34.657Z,13.20
2022-10-18T00:50:04.560Z,12.30
2022-10-18T00:52:36.035Z,12.95
2022-10-18T00:55:03.843Z,13.55
2022-10-18T00:57:30.586Z,13.30
2022-10-18T00:59:57.375Z,13.13
2022-10-18T01:02:24.765Z,13.30
2022-10-18T01:04:51.689Z,12.90
2022-10-18T01:07:45.747Z,14.20
2022-10-18T01:10:31.090Z,14.02
2022-10-18T01:13:25.615Z,13.38
2022-10-18T01:16:00.306Z,12.95
2022-10-18T01:18:32.773Z,13.38
2022-10-18T01:21:16.898Z,13.45
2022-10-18T01:24:20.744Z,13.65
2022-10-18T01:27:27.756Z,13.60
2022-10-18T01:30:12.161Z,12.85
2022-10-18T01:32:44.762Z,13.57
2022-10-18T01:35:15.113Z,13.32
2022-10-18T01:37:45.234Z,14.68
2022-10-18T01:40:14.390Z,13.95
2022-10-18T01:42:41.489Z,13.93
2022-10-18T01:45:10.080Z,14.88
2022-10-18T01:47:37.222Z,14.57
2022-10-18T01:50:07.013Z,14.48
2022-10-18T01:52:33.863Z,14.65
2022-10-18T01:55:03.401Z,13.98
2022-10-18T01:57:36.895Z,14.60
2022-10-18T02:00:08.688Z,13.38
2022-10-18T02:02:44.080Z,14.10
2022-10-18T02:05:21.644Z,14.10
2022-10-18T02:08:05.602Z,14.50
2022-10-18T02:10:42.816Z,13.50
2022-10-18T02:13:11.518Z,13.20
2022-10-18T02:18:13.183Z,12.32
2022-10-18T02:20:42.286Z,14.05
2022-10-18T02:23:11.214Z,13.52
2022-10-18T02:25:39.140Z,13.00
2022-10-18T02:28:06.054Z,14.60
2022-10-18T02:30:37.807Z,13.85
2022-10-18T02:33:11.872Z,13.13
2022-10-18T02:35:45.582Z,13.95
2022-10-18T02:38:14.316Z,15.23
2022-10-18T02:43:07.589Z,13.27
2022-10-18T02:45:34.583Z,14.07
2022-10-18T02:48:01.395Z,14.77
2022-10-18T02:50:27.998Z,15.70
2022-10-18T02:52:55.935Z,15.43
2022-10-18T02:55:22.594Z,15.65
2022-10-18T02:57:49.207Z,16.33
2022-10-18T03:00:16.082Z,15.82
2022-10-18T03:02:42.724Z,16.85
2022-10-18T03:05:09.434Z,15.80
2022-10-18T03:07:35.983Z,16.52
2022-10-18T03:10:04.407Z,16.73
2022-10-18T03:12:30.991Z,16.00
2022-10-18T03:14:57.643Z,15.70
2022-10-18T03:17:24.442Z,15.63
2022-10-18T03:19:51.077Z,15.80
2022-10-18T03:22:17.930Z,16.35
2022-10-18T03:24:45.513Z,16.42
2022-10-18T03:27:13.560Z,15.45
2022-10-18T03:29:40.621Z,15.73
2022-10-18T03:32:07.307Z,16.52
2022-10-18T03:34:33.876Z,16.02
2022-10-18T03:37:03.360Z,16.02
2022-10-18T03:39:31.958Z,15.40
2022-10-18T03:41:58.627Z,15.18
2022-10-18T03:44:26.608Z,15.27
2022-10-18T03:46:53.236Z,15.45
2022-10-18T03:49:19.974Z,15.18
2022-10-18T03:51:46.658Z,14.07
2022-10-18T03:54:13.196Z,15.30
2022-10-18T03:56:39.807Z,14.15
2022-10-18T03:59:06.380Z,14.63
2022-10-18T04:01:34.421Z,14.45
2022-10-18T04:04:09.028Z,15.05
2022-10-18T04:06:35.658Z,14.88
2022-10-18T04:09:04.225Z,14.57
2022-10-18T04:11:33.531Z,14.50
2022-10-18T04:14:00.122Z,14.45
2022-10-18T04:16:26.773Z,13.93
2022-10-18T04:18:54.943Z,14.60
2022-10-18T04:23:48.875Z,14.25
2022-10-18T04:26:16.648Z,14.48
2022-10-18T04:28:44.207Z,14.03
2022-10-18T04:31:11.573Z,14.50
2022-10-18T04:33:39.025Z,14.02
2022-10-18T04:41:00.839Z,11.63
2022-10-18T04:43:27.479Z,12.60
2022-10-18T04:45:54.407Z,13.02
2022-10-18T04:48:21.352Z,12.88
2022-10-18T04:50:48.847Z,12.45
2022-10-18T04:53:18.059Z,12.80
2022-10-18T04:55:45.279Z,12.02
2022-10-18T04:58:12.536Z,12.25
2022-10-18T05:00:40.138Z,11.90
2022-10-18T05:03:07.359Z,11.33
2022-10-18T05:05:49.829Z,12.05
2022-10-18T05:08:22.268Z,11.50
2022-10-18T05:10:48.977Z,11.48
2022-10-18T05:13:15.944Z,11.85
2022-10-18T05:15:42.516Z,11.45
2022-10-18T05:18:09.084Z,10.85
2022-10-18T05:20:35.821Z,11.25
2022-10-18T05:23:02.379Z,10.77
2022-10-18T05:25:30.639Z,11.40
2022-10-18T05:27:57.294Z,11.15
2022-10-18T05:30:23.946Z,11.73
2022-10-18T05:32:50.551Z,11.48
2022-10-18T05:35:17.286Z,12.25
2022-10-18T05:37:43.882Z,11.98
2022-10-18T05:40:11.531Z,11.05
2022-10-18T05:42:40.190Z,11.88
2022-10-18T05:50:05.739Z,11.38
2022-10-18T05:52:32.730Z,11.20
2022-10-18T05:54:59.496Z,11.68
2022-10-18T05:57:26.352Z,11.80
2022-10-18T05:59:54.339Z,12.05
2022-10-18T06:02:21.020Z,12.93
2022-10-18T06:04:47.628Z,13.05
2022-10-18T06:07:14.444Z,13.10
2022-10-18T06:09:41.685Z,12.88
2022-10-18T06:12:09.109Z,13.00
2022-10-18T06:14:37.196Z,12.80
2022-10-18T06:17:05.418Z,12.35
2022-10-18T06:19:32.056Z,11.00
2022-10-18T06:21:58.642Z,11.48
2022-10-18T06:24:26.274Z,10.80
2022-10-18T06:26:52.914Z,10.38
2022-10-18T06:29:19.600Z,9.93
2022-10-18T06:31:46.156Z,8.65
2022-10-18T06:34:14.123Z,8.82
2022-10-18T06:36:41.179Z,8.60
2022-10-18T06:39:07.978Z,7.93
2022-10-18T06:41:34.633Z,9.02
2022-10-18T06:44:07.113Z,8.77
2022-10-18T06:46:34.129Z,8.63
2022-10-18T06:49:00.744Z,10.25
2022-10-18T06:51:28.727Z,9.40
2022-10-18T06:54:06.136Z,9.85
2022-10-18T06:56:39.833Z,9.88
2022-10-18T06:59:06.483Z,9.65
2022-10-18T07:01:33.424Z,10.15
2022-10-18T07:04:02.548Z,9.85
2022-10-18T07:06:33.288Z,10.90
2022-10-18T07:09:00.295Z,10.70
2022-10-18T07:11:27.381Z,10.80
2022-10-18T07:13:55.469Z,10.05
2022-10-18T07:16:22.134Z,12.18
2022-10-18T07:18:50.982Z,11.55
2022-10-18T07:21:20.322Z,11.52
2022-10-18T07:23:49.506Z,11.63
2022-10-18T07:26:17.710Z,12.55
2022-10-18T07:28:46.067Z,12.20
2022-10-18T07:31:13.614Z,12.75
2022-10-18T07:33:40.367Z,12.57
2022-10-18T07:36:09.237Z,12.75
2022-10-18T07:38:36.908Z,12.50
2022-10-18T07:41:09.251Z,12.35
2022-10-18T07:43:35.826Z,12.70
2022-10-18T07:46:05.309Z,12.80
2022-10-18T07:48:31.903Z,11.95
2022-10-18T07:50:59.796Z,11.68
2022-10-18T07:53:26.813Z,11.60
2022-10-18T07:55:57.721Z,11.52
2022-10-18T07:58:25.842Z,10.73
2022-10-18T08:00:52.771Z,10.23
2022-10-18T08:03:19.886Z,9.55
2022-10-18T08:05:52.024Z,10.30
2022-10-18T08:08:19.117Z,10.07
2022-10-18T08:10:45.730Z,10.18
2022-10-18T08:13:12.359Z,8.98
2022-10-18T08:15:40.451Z,9.35
2022-10-18T08:18:07.114Z,9.07
2022-10-18T08:20:33.781Z,7.97
2022-10-18T08:23:00.893Z,8.52
2022-10-18T08:25:28.928Z,8.68
2022-10-18T08:27:55.689Z,9.13
2022-10-18T08:30:23.468Z,7.78
2022-10-18T08:32:51.430Z,7.32
2022-10-18T08:35:18.262Z,8.10
2022-10-18T08:37:45.426Z,7.90
2022-10-18T08:40:13.833Z,7.65
2022-10-18T08:42:58.885Z,8.30
2022-10-18T08:45:40.878Z,7.30
2022-10-18T08:48:21.833Z,7.07
2022-10-18T08:50:50.979Z,6.75
2022-10-18T08:53:24.387Z,7.05
2022-10-18T08:55:54.995Z,7.40
2022-10-18T08:58:23.595Z,6.65
2022-10-18T09:00:58.146Z,7.10
2022-10-18T09:03:48.737Z,6.10
2022-10-18T09:06:25.466Z,5.70
2022-10-18T09:09:19.023Z,5.03
2022-10-18T09:12:01.906Z,3.80
2022-10-18T09:15:06.886Z,4.00
2022-10-18T09:17:44.013Z,3.95
2022-10-18T09:20:25.696Z,4.03
2022-10-18T09:22:55.228Z,4.55
2022-10-18T09:25:24.254Z,4.35
2022-10-18T09:27:59.830Z,4.03
2022-10-18T09:30:49.278Z,3.88
2022-10-18T09:33:28.742Z,3.58
2022-10-18T09:35:58.987Z,3.40
2022-10-18T09:38:30.875Z,2.70
2022-10-18T09:41:00.744Z,2.80
2022-10-18T09:43:39.826Z,2.38
2022-10-18T09:46:07.246Z,2.22
2022-10-18T09:48:41.643Z,2.25
2022-10-18T09:51:12.562Z,2.25
2022-10-18T09:53:44.466Z,2.13
2022-10-18T09:56:15.138Z,2.17
2022-10-18T09:58:44.314Z,1.90
2022-10-18T10:01:13.349Z,1.90
2022-10-18T10:03:40.051Z,2.10
2022-10-18T10:06:26.478Z,2.17
2022-10-18T10:09:00.467Z,1.80
2022-10-18T10:11:36.711Z,1.80
2022-10-18T10:14:13.289Z,1.60
2022-10-18T10:16:46.767Z,1.70
2022-10-18T10:19:18.890Z,1.73
2022-10-18T10:21:49.182Z,1.63
2022-10-18T10:24:31.201Z,1.60
2022-10-18T10:27:00.160Z,1.30
2022-10-18T10:32:13.264Z,1.27
2022-10-18T10:34:43.884Z,1.50
2022-10-18T10:37:28.684Z,1.80
2022-10-18T10:40:23.964Z,1.30
2022-10-18T10:43:18.245Z,1.10
2022-10-18T10:46:02.715Z,2.00
2022-10-18T10:48:33.711Z,1.50
2022-10-18T10:51:04.104Z,1.00
2022-10-18T10:53:39.968Z,1.60
2022-10-18T10:56:16.142Z,1.90
2022-10-18T10:58:43.074Z,1.23
2022-10-18T11:01:22.511Z,1.60
2022-10-18T11:03:50.868Z,1.40
2022-10-18T11:06:35.443Z,1.20
2022-10-18T11:09:10.315Z,1.48
2022-10-18T11:11:46.763Z,1.15
2022-10-18T11:14:26.662Z,0.98
2022-10-18T11:17:06.951Z,1.42
2022-10-18T11:19:41.260Z,1.20
2022-10-18T11:22:13.910Z,1.20
2022-10-18T11:24:47.329Z,1.02
2022-10-18T11:27:24.131Z,1.02
2022-10-18T11:30:07.727Z,1.42
2022-10-18T11:32:44.264Z,1.13
2022-10-18T11:35:31.884Z,1.50
2022-10-18T11:38:14.097Z,1.10
2022-10-18T11:40:51.212Z,1.20
2022-10-18T11:43:30.265Z,1.10
2022-10-18T11:46:06.957Z,1.42
2022-10-18T11:48:49.433Z,1.00
2022-10-18T11:51:35.363Z,1.30
2022-10-18T11:57:22.508Z,1.40
2022-10-18T12:00:01.288Z,1.60
2022-10-18T12:02:55.117Z,1.80
2022-10-18T12:05:23.963Z,2.00
2022-10-18T12:07:58.396Z,1.83
2022-10-18T12:10:38.055Z,1.98
2022-10-18T12:13:19.205Z,1.60
2022-10-18T12:15:47.596Z,1.65
2022-10-18T12:18:17.613Z,1.73
2022-10-18T12:20:49.422Z,1.60
2022-10-18T12:23:20.743Z,1.98
2022-10-18T12:25:53.926Z,1.60
2022-10-18T12:28:35.308Z,1.38
2022-10-18T12:31:08.513Z,1.30
2022-10-18T12:33:40.464Z,1.30
2022-10-18T12:36:22.934Z,1.50
2022-10-18T12:38:53.518Z,1.30
2022-10-18T12:41:23.476Z,1.02
2022-10-18T12:43:58.895Z,1.23
2022-10-18T12:46:43.877Z,1.35
2022-10-18T12:49:13.571Z,1.30
2022-10-18T12:51:51.845Z,1.10
2022-10-18T12:54:24.092Z,1.13
2022-10-18T12:56:50.974Z,1.80
2022-10-18T12:59:53.880Z,1.25
2022-10-18T13:02:31.483Z,1.05
2022-10-18T13:05:00.421Z,1.25
2022-10-18T13:07:41.069Z,1.10
2022-10-18T13:10:41.244Z,1.38
2022-10-18T13:13:39.680Z,0.95
2022-10-18T13:16:24.946Z,1.00
2022-10-18T13:18:57.757Z,0.90
2022-10-18T13:21:35.090Z,1.15
2022-10-18T13:24:25.975Z,1.10
2022-10-18T13:27:24.366Z,1.00
2022-10-18T13:30:12.305Z,1.00
2022-10-18T13:32:57.345Z,1.10
2022-10-18T13:35:44.762Z,1.08
2022-10-18T13:38:32.699Z,0.93
2022-10-18T13:41:03.536Z,1.10
2022-10-18T13:44:12.731Z,0.93
2022-10-18T13:47:13.195Z,0.70
2022-10-18T13:50:04.053Z,0.90
2022-10-18T13:52:50.119Z,1.20
2022-10-18T13:55:56.135Z,0.77
2022-10-18T13:58:32.948Z,1.10
2022-10-18T14:01:17.040Z,1.15
2022-10-18T14:04:03.011Z,0.82
2022-10-18T14:06:35.377Z,1.00
2022-10-18T14:09:14.119Z,0.80
2022-10-18T14:11:55.815Z,0.88
2022-10-18T14:14:29.935Z,0.90
2022-10-18T14:17:03.803Z,0.93
2022-10-18T14:19:38.479Z,1.00
2022-10-18T14:22:13.790Z,0.90
2022-10-18T14:24:44.922Z,1.08
2022-10-18T14:27:22.399Z,0.93
2022-10-18T14:29:50.992Z,0.73
2022-10-18T14:32:29.349Z,0.75
2022-10-18T14:35:20.675Z,1.00
2022-10-18T14:37:47.745Z,1.23
2022-10-18T14:40:37.947Z,1.15
2022-10-18T14:43:10.641Z,0.90
2022-10-18T14:45:37.426Z,0.77
2022-10-18T14:48:15.263Z,0.80
2022-10-18T14:50:44.715Z,1.02
2022-10-18T14:53:17.959Z,0.98
2022-10-18T14:55:52.944Z,0.90
2022-10-18T14:58:20.752Z,0.73
2022-10-18T15:00:50.512Z,0.70
2022-10-18T15:03:20.375Z,1.00
2022-10-18T15:06:03.566Z,1.08
2022-10-18T15:08:36.942Z,0.70
2022-10-18T15:11:10.507Z,0.77
2022-10-18T15:13:47.142Z,0.70
2022-10-18T15:16:17.570Z,0.73
2022-10-18T15:18:58.508Z,0.70
2022-10-18T15:21:25.954Z,0.93
2022-10-18T15:23:55.240Z,1.00
2022-10-18T15:26:26.544Z,0.90
2022-10-18T15:28:56.628Z,0.98
2022-10-18T15:31:26.843Z,0.77
2022-10-18T15:33:55.343Z,1.15
2022-10-18T15:36:29.373Z,1.02
2022-10-18T15:39:07.032Z,1.30
2022-10-18T15:41:46.116Z,1.43
2022-10-18T15:44:21.008Z,1.00
2022-10-18T15:46:48.826Z,1.13
2022-10-18T15:50:00.297Z,1.13
2022-10-18T15:52:39.692Z,0.95
2022-10-18T15:55:55.936Z,0.98
2022-10-18T15:58:27.485Z,1.50
2022-10-18T16:00:57.806Z,0.80
2022-10-18T16:03:25.448Z,1.20
2022-10-18T16:05:56.513Z,1.20
2022-10-18T16:08:24.398Z,1.27
2022-10-18T16:10:51.659Z,1.27
2022-10-18T16:13:18.896Z,1.20
2022-10-18T16:15:47.052Z,1.27
2022-10-18T16:18:16.180Z,1.50
2022-10-18T16:20:42.898Z,1.13
2022-10-18T16:23:16.372Z,1.48
2022-10-18T16:25:43.165Z,1.40
2022-10-18T16:28:13.453Z,1.10
2022-10-18T16:30:40.931Z,1.20
2022-10-18T16:33:08.915Z,1.20
2022-10-18T16:35:35.876Z,1.52
2022-10-18T16:38:02.816Z,1.70
2022-10-18T16:40:29.468Z,1.55
2022-10-18T16:42:56.104Z,1.60
2022-10-18T16:45:22.725Z,1.20
2022-10-18T16:47:49.374Z,1.33
2022-10-18T16:50:19.715Z,1.40
2022-10-18T16:52:46.535Z,1.45
2022-10-18T16:55:21.258Z,1.35
2022-10-18T16:57:50.314Z,1.30
2022-10-18T17:00:26.179Z,1.45
2022-10-18T17:02:53.747Z,1.25
2022-10-18T17:05:22.683Z,1.33
2022-10-18T17:07:49.716Z,1.77
2022-10-18T17:10:18.991Z,1.27
2022-10-18T17:12:45.962Z,1.23
2022-10-18T17:15:13.071Z,1.45
2022-10-18T17:17:39.716Z,1.35
2022-10-18T17:20:08.131Z,1.50
2022-10-18T17:22:36.238Z,2.00
2022-10-18T17:25:03.076Z,1.48
2022-10-18T17:27:29.810Z,1.45
2022-10-18T17:29:57.536Z,1.48
2022-10-18T17:32:24.230Z,1.50
2022-10-18T17:34:50.910Z,1.50
2022-10-18T17:37:17.562Z,1.40
2022-10-18T17:39:45.644Z,1.50
2022-10-18T17:42:12.459Z,1.40
2022-10-18T17:44:39.149Z,1.40
2022-10-18T17:47:05.776Z,1.45
2022-10-18T17:49:32.439Z,1.30
2022-10-18T17:52:02.086Z,1.50
2022-10-18T17:54:31.091Z,1.75
2022-10-18T17:56:59.069Z,1.52
2022-10-18T17:59:26.158Z,1.65
2022-10-18T18:01:53.779Z,1.38
2022-10-18T18:04:20.426Z,1.50
2022-10-18T18:06:49.038Z,1.40
2022-10-18T18:09:16.572Z,1.60
2022-10-18T18:11:45.002Z,1.58
2022-10-18T18:14:13.274Z,1.50
2022-10-18T18:16:41.701Z,1.55
2022-10-18T18:19:10.053Z,1.50
2022-10-18T18:21:39.417Z,1.20
2022-10-18T18:24:07.057Z,1.98
2022-10-18T18:26:38.284Z,2.00
2022-10-18T18:29:05.090Z,1.80
2022-10-18T18:31:38.791Z,1.77
2022-10-18T18:34:09.584Z,1.70
2022-10-18T18:36:36.750Z,1.70
2022-10-18T18:39:05.546Z,2.00
2022-10-18T18:41:33.493Z,1.92
2022-10-18T18:44:04.186Z,2.10
2022-10-18T18:46:36.613Z,2.08
2022-10-18T18:49:03.614Z,1.88
2022-10-18T18:51:30.268Z,2.30
2022-10-18T18:53:59.870Z,2.28
2022-10-18T18:56:29.066Z,2.10
2022-10-18T18:58:56.880Z,1.98
2022-10-18T19:01:25.794Z,1.88
2022-10-18T19:03:55.714Z,1.90
2022-10-18T19:06:24.151Z,1.95
2022-10-18T19:08:54.139Z,2.22
2022-10-18T19:11:22.331Z,2.50
2022-10-18T19:13:49.408Z,2.35
2022-10-18T19:16:20.113Z,2.42
2022-10-18T19:18:59.201Z,2.50
2022-10-18T19:21:28.270Z,2.55
2022-10-18T19:23:56.565Z,2.50
2022-10-18T19:26:29.933Z,2.35
2022-10-18T19:29:01.704Z,2.83
2022-10-18T19:31:28.775Z,2.38
2022-10-18T19:33:59.686Z,2.38
2022-10-18T19:36:29.132Z,2.35
2022-10-18T19:38:55.991Z,2.45
2022-10-18T19:43:55.798Z,2.50
2022-10-18T19:46:22.924Z,2.33
2022-10-18T19:48:49.613Z,2.40
2022-10-18T19:51:20.248Z,2.50
2022-10-18T19:53:52.123Z,2.55
2022-10-18T19:56:21.755Z,2.80
2022-10-18T19:58:49.475Z,2.60
2022-10-18T20:01:17.568Z,2.53
2022-10-18T20:03:45.128Z,3.05
2022-10-18T20:06:12.213Z,3.10
2022-10-18T20:08:39.383Z,2.50
2022-10-18T20:11:09.143Z,2.70
2022-10-18T20:13:36.416Z,2.65
2022-10-18T20:16:04.999Z,2.60
2022-10-18T20:18:31.622Z,2.58
2022-10-18T20:20:58.283Z,2.40
2022-10-18T20:23:25.016Z,2.10
2022-10-18T20:25:59.032Z,2.58
2022-10-18T20:28:27.611Z,2.78
2022-10-18T20:31:02.320Z,2.35
2022-10-18T20:33:29.024Z,2.40
2022-10-18T20:35:55.827Z,1.98
2022-10-18T20:38:22.684Z,2.42
2022-10-18T20:40:49.459Z,1.70
2022-10-18T20:43:16.051Z,2.03
2022-10-18T20:45:43.979Z,2.70
2022-10-18T20:48:10.636Z,2.13
2022-10-18T20:50:40.945Z,2.40
2022-10-18T20:53:08.337Z,2.35
2022-10-18T20:55:36.435Z,2.33
2022-10-18T20:58:03.084Z,2.50
2022-10-18T21:00:29.650Z,2.45
2022-10-18T21:02:59.122Z,2.25
2022-10-18T21:05:25.940Z,2.13
2022-10-18T21:07:52.845Z,2.78
2022-10-18T21:10:19.398Z,2.33
2022-10-18T21:12:48.023Z,2.00
2022-10-18T21:15:15.513Z,1.95
2022-10-18T21:17:42.295Z,2.00
2022-10-18T21:20:11.578Z,1.90
2022-10-18T21:22:38.267Z,2.13
2022-10-18T21:25:05.963Z,1.80
2022-10-18T21:27:32.577Z,2.13
2022-10-18T21:29:59.171Z,2.30
2022-10-18T21:32:25.770Z,1.90
2022-10-18T21:34:52.551Z,2.05
2022-10-18T21:37:20.765Z,2.10
2022-10-18T21:39:47.643Z,2.00
2022-10-18T21:42:14.199Z,1.90
2022-10-18T21:44:40.783Z,1.90
2022-10-18T21:47:08.467Z,2.20
2022-10-18T21:49:35.192Z,2.17
2022-10-18T21:52:05.462Z,1.98
2022-10-18T21:54:33.433Z,1.73
2022-10-18T21:56:59.988Z,2.10
2022-10-18T21:59:26.627Z,2.25
2022-10-18T22:01:53.362Z,1.92
2022-10-18T22:04:21.867Z,2.33
2022-10-18T22:06:48.826Z,2.53
2022-10-18T22:09:15.687Z,2.35
2022-10-18T22:11:46.164Z,1.98
2022-10-18T22:14:12.916Z,1.95
2022-10-18T22:16:39.588Z,1.80
2022-10-18T22:19:07.212Z,2.25
2022-10-18T22:21:34.767Z,2.00
2022-10-18T22:24:05.529Z,1.98
2022-10-18T22:26:35.311Z,1.95
2022-10-18T22:29:06.299Z,2.00
2022-10-18T22:31:35.393Z,1.85
2022-10-18T22:34:04.239Z,2.10
2022-10-18T22:38:59.999Z,1.73
2022-10-18T22:41:26.680Z,1.80
2022-10-18T22:43:53.522Z,1.70
2022-10-18T22:46:21.632Z,1.80
2022-10-18T22:48:48.660Z,2.08
2022-10-18T22:51:15.509Z,1.75
2022-10-18T22:53:42.127Z,1.88
2022-10-18T22:56:11.956Z,1.95
2022-10-18T22:58:38.677Z,1.95
2022-10-18T23:01:07.761Z,2.15
2022-10-18T23:03:36.478Z,1.60
2022-10-18T23:06:04.363Z,1.70
2022-10-18T23:08:31.950Z,1.95
2022-10-18T23:10:59.663Z,1.70
2022-10-18T23:13:27.404Z,1.73
2022-10-18T23:16:04.370Z,1.95
2022-10-18T23:18:32.059Z,2.00
2022-10-18T23:21:04.245Z,2.08
2022-10-18T23:23:34.700Z,1.75
2022-10-18T23:26:03.150Z,1.80
2022-10-18T23:28:29.787Z,2.25
2022-10-18T23:30:56.457Z,2.13
2022-10-18T23:33:23.024Z,2.22
2022-10-18T23:35:49.675Z,2.30
2022-10-18T23:38:18.028Z,2.20
2022-10-18T23:40:44.704Z,2.20
2022-10-18T23:43:11.326Z,2.38
2022-10-18T23:45:38.002Z,2.20
2022-10-18T23:48:04.838Z,2.20
2022-10-18T23:50:31.579Z,2.30
2022-10-18T23:52:58.210Z,2.50
2022-10-18T23:55:26.166Z,2.38
2022-10-18T23:57:53.086Z,2.37
